sensor_id;sensor_type;location;lat;lon;timestamp;pressure;altitude;pressure_sealevel;temperature;humidity
74075;BME280;62428;51.412;5.432;2023-05-19T00:01:43;102459.13;;;11.41;59.29
74075;BME280;62428;51.412;5.432;2023-05-19T00:04:09;102467.72;;;11.38;58.62
74075;BME280;62428;51.412;5.432;2023-05-19T00:06:37;102469.03;;;11.35;59.06
74075;BME280;62428;51.412;5.432;2023-05-19T00:09:04;102459.00;;;11.25;57.43
74075;BME280;62428;51.412;5.432;2023-05-19T00:11:31;102455.78;;;11.23;58.43
74075;BME280;62428;51.412;5.432;2023-05-19T00:13:58;102461.16;;;11.23;59.22
74075;BME280;62428;51.412;5.432;2023-05-19T00:16:25;102458.97;;;11.20;57.40
74075;BME280;62428;51.412;5.432;2023-05-19T00:18:51;102454.13;;;11.17;57.42
74075;BME280;62428;51.412;5.432;2023-05-19T00:21:17;102453.28;;;11.16;58.77
74075;BME280;62428;51.412;5.432;2023-05-19T00:23:42;102450.03;;;11.14;59.71
74075;BME280;62428;51.412;5.432;2023-05-19T00:26:08;102445.75;;;11.13;59.57
74075;BME280;62428;51.412;5.432;2023-05-19T00:28:33;102447.56;;;11.08;59.58
74075;BME280;62428;51.412;5.432;2023-05-19T00:30:59;102447.56;;;11.08;58.48
74075;BME280;62428;51.412;5.432;2023-05-19T00:33:25;102441.06;;;11.04;57.97
74075;BME280;62428;51.412;5.432;2023-05-19T00:35:50;102431.66;;;11.01;57.79
74075;BME280;62428;51.412;5.432;2023-05-19T00:38:15;102434.28;;;10.96;58.30
74075;BME280;62428;51.412;5.432;2023-05-19T00:40:41;102428.59;;;10.92;58.27
74075;BME280;62428;51.412;5.432;2023-05-19T00:43:06;102429.09;;;10.89;58.28
74075;BME280;62428;51.412;5.432;2023-05-19T00:45:33;102422.38;;;10.87;58.20
74075;BME280;62428;51.412;5.432;2023-05-19T00:47:58;102421.03;;;10.84;58.43
74075;BME280;62428;51.412;5.432;2023-05-19T00:50:24;102418.84;;;10.81;58.69
74075;BME280;62428;51.412;5.432;2023-05-19T00:52:51;102419.88;;;10.80;58.30
74075;BME280;62428;51.412;5.432;2023-05-19T00:55:17;102420.13;;;10.78;58.43
74075;BME280;62428;51.412;5.432;2023-05-19T00:57:43;102416.88;;;10.76;58.18
74075;BME280;62428;51.412;5.432;2023-05-19T01:00:09;102419.81;;;10.75;58.38
74075;BME280;62428;51.412;5.432;2023-05-19T01:02:35;102420.91;;;10.74;58.53
74075;BME280;62428;51.412;5.432;2023-05-19T01:05:02;102428.97;;;10.74;58.17
74075;BME280;62428;51.412;5.432;2023-05-19T01:07:28;102426.28;;;10.74;59.61
74075;BME280;62428;51.412;5.432;2023-05-19T01:09:54;102420.34;;;10.72;61.45
74075;BME280;62428;51.412;5.432;2023-05-19T01:12:20;102431.09;;;10.72;60.04
74075;BME280;62428;51.412;5.432;2023-05-19T01:14:45;102427.88;;;10.70;60.44
74075;BME280;62428;51.412;5.432;2023-05-19T01:17:18;102428.13;;;10.68;61.46
74075;BME280;62428;51.412;5.432;2023-05-19T01:20:07;102430.81;;;10.68;60.75
74075;BME280;62428;51.412;5.432;2023-05-19T01:25:43;102429.63;;;10.59;60.63
74075;BME280;62428;51.412;5.432;2023-05-19T01:30:59;102426.81;;;10.49;61.16
74075;BME280;62428;51.412;5.432;2023-05-19T01:33:26;102429.19;;;10.45;61.23
74075;BME280;62428;51.412;5.432;2023-05-19T01:35:54;102429.44;;;10.44;61.29
74075;BME280;62428;51.412;5.432;2023-05-19T01:38:20;102429.13;;;10.40;61.15
74075;BME280;62428;51.412;5.432;2023-05-19T01:40:47;102425.91;;;10.38;61.77
74075;BME280;62428;51.412;5.432;2023-05-19T01:43:18;102435.28;;;10.35;61.99
74075;BME280;62428;51.412;5.432;2023-05-19T01:45:45;102433.09;;;10.32;61.74
74075;BME280;62428;51.412;5.432;2023-05-19T01:48:12;102426.31;;;10.30;62.35
74075;BME280;62428;51.412;5.432;2023-05-19T01:50:38;102421.69;;;10.25;62.51
74075;BME280;62428;51.412;5.432;2023-05-19T01:53:04;102429.69;;;10.20;62.37
74075;BME280;62428;51.412;5.432;2023-05-19T01:55:29;102420.25;;;10.17;62.74
74075;BME280;62428;51.412;5.432;2023-05-19T01:58:16;102410.56;;;10.16;61.91
74075;BME280;62428;51.412;5.432;2023-05-19T02:10:06;102416.31;;;10.03;63.57
74075;BME280;62428;51.412;5.432;2023-05-19T02:12:38;102411.75;;;10.04;62.64
74075;BME280;62428;51.412;5.432;2023-05-19T02:15:13;102415.44;;;9.97;64.10
74075;BME280;62428;51.412;5.432;2023-05-19T02:17:42;102404.38;;;9.94;64.41
74075;BME280;62428;51.412;5.432;2023-05-19T02:20:12;102405.97;;;9.90;64.32
74075;BME280;62428;51.412;5.432;2023-05-19T02:22:37;102402.88;;;9.81;64.80
74075;BME280;62428;51.412;5.432;2023-05-19T02:25:03;102400.94;;;9.76;64.71
74075;BME280;62428;51.412;5.432;2023-05-19T02:27:29;102404.13;;;9.73;65.10
74075;BME280;62428;51.412;5.432;2023-05-19T02:29:55;102401.69;;;9.72;64.97
74075;BME280;62428;51.412;5.432;2023-05-19T02:32:20;102402.16;;;9.69;65.33
74075;BME280;62428;51.412;5.432;2023-05-19T02:34:46;102395.19;;;9.68;65.46
74075;BME280;62428;51.412;5.432;2023-05-19T02:37:12;102400.81;;;9.66;65.53
74075;BME280;62428;51.412;5.432;2023-05-19T02:39:38;102403.50;;;9.66;65.61
74075;BME280;62428;51.412;5.432;2023-05-19T02:42:04;102399.69;;;9.62;65.82
74075;BME280;62428;51.412;5.432;2023-05-19T02:44:30;102399.94;;;9.60;66.14
74075;BME280;62428;51.412;5.432;2023-05-19T02:46:55;102400.16;;;9.59;66.14
74075;BME280;62428;51.412;5.432;2023-05-19T02:49:20;102394.00;;;9.58;66.16
74075;BME280;62428;51.412;5.432;2023-05-19T02:51:46;102398.22;;;9.54;66.49
74075;BME280;62428;51.412;5.432;2023-05-19T02:54:11;102405.94;;;9.51;66.79
74075;BME280;62428;51.412;5.432;2023-05-19T02:56:36;102392.19;;;9.47;66.69
74075;BME280;62428;51.412;5.432;2023-05-19T02:59:01;102391.88;;;9.43;67.21
74075;BME280;62428;51.412;5.432;2023-05-19T03:01:27;102400.69;;;9.39;67.14
74075;BME280;62428;51.412;5.432;2023-05-19T03:03:52;102395.56;;;9.37;67.44
74075;BME280;62428;51.412;5.432;2023-05-19T03:06:18;102386.13;;;9.35;67.45
74075;BME280;62428;51.412;5.432;2023-05-19T03:08:43;102395.00;;;9.35;67.36
74075;BME280;62428;51.412;5.432;2023-05-19T03:11:09;102393.03;;;9.31;67.78
74075;BME280;62428;51.412;5.432;2023-05-19T03:13:34;102393.88;;;9.31;67.82
74075;BME280;62428;51.412;5.432;2023-05-19T03:15:59;102381.75;;;9.29;68.04
74075;BME280;62428;51.412;5.432;2023-05-19T03:18:26;102397.50;;;9.25;68.08
74075;BME280;62428;51.412;5.432;2023-05-19T03:20:51;102398.81;;;9.22;68.31
74075;BME280;62428;51.412;5.432;2023-05-19T03:23:21;102401.97;;;9.19;68.54
74075;BME280;62428;51.412;5.432;2023-05-19T03:25:46;102402.50;;;9.16;68.85
74075;BME280;62428;51.412;5.432;2023-05-19T03:28:12;102401.88;;;9.14;68.92
74075;BME280;62428;51.412;5.432;2023-05-19T03:30:37;102400.53;;;9.12;69.02
74075;BME280;62428;51.412;5.432;2023-05-19T03:33:02;102402.06;;;9.08;69.10
74075;BME280;62428;51.412;5.432;2023-05-19T03:35:29;102393.47;;;9.06;69.22
74075;BME280;62428;51.412;5.432;2023-05-19T03:37:54;102401.19;;;9.02;69.64
74075;BME280;62428;51.412;5.432;2023-05-19T03:40:20;102401.09;;;8.97;70.09
74075;BME280;62428;51.412;5.432;2023-05-19T03:42:45;102401.31;;;8.95;70.35
74075;BME280;62428;51.412;5.432;2023-05-19T03:45:10;102407.72;;;8.94;70.40
74075;BME280;62428;51.412;5.432;2023-05-19T03:47:36;102406.13;;;8.93;70.59
74075;BME280;62428;51.412;5.432;2023-05-19T03:50:01;102412.03;;;8.95;70.51
74075;BME280;62428;51.412;5.432;2023-05-19T03:52:26;102412.28;;;8.94;70.79
74075;BME280;62428;51.412;5.432;2023-05-19T03:54:52;102415.19;;;8.92;70.98
74075;BME280;62428;51.412;5.432;2023-05-19T03:57:17;102419.44;;;8.88;71.50
74075;BME280;62428;51.412;5.432;2023-05-19T03:59:43;102411.06;;;8.84;71.82
74075;BME280;62428;51.412;5.432;2023-05-19T04:02:08;102416.66;;;8.83;71.87
74075;BME280;62428;51.412;5.432;2023-05-19T04:04:33;102411.06;;;8.84;71.99
74075;BME280;62428;51.412;5.432;2023-05-19T04:06:59;102415.84;;;8.82;72.22
74075;BME280;62428;51.412;5.432;2023-05-19T04:09:25;102407.81;;;8.82;72.34
74075;BME280;62428;51.412;5.432;2023-05-19T04:11:50;102404.88;;;8.84;72.38
74075;BME280;62428;51.412;5.432;2023-05-19T04:14:16;102410.50;;;8.82;72.48
74075;BME280;62428;51.412;5.432;2023-05-19T04:16:41;102404.56;;;8.80;72.96
74075;BME280;62428;51.412;5.432;2023-05-19T04:19:06;102414.47;;;8.80;73.07
74075;BME280;62428;51.412;5.432;2023-05-19T04:21:32;102404.78;;;8.79;73.27
74075;BME280;62428;51.412;5.432;2023-05-19T04:23:57;102406.09;;;8.76;73.23
74075;BME280;62428;51.412;5.432;2023-05-19T04:26:24;102407.13;;;8.75;73.57
74075;BME280;62428;51.412;5.432;2023-05-19T04:28:51;102406.81;;;8.72;73.71
74075;BME280;62428;51.412;5.432;2023-05-19T04:31:18;102408.69;;;8.71;74.05
74075;BME280;62428;51.412;5.432;2023-05-19T04:33:45;102408.13;;;8.69;73.89
74075;BME280;62428;51.412;5.432;2023-05-19T04:36:12;102412.63;;;8.69;74.26
74075;BME280;62428;51.412;5.432;2023-05-19T04:38:38;102418.00;;;8.69;74.59
74075;BME280;62428;51.412;5.432;2023-05-19T04:41:07;102421.50;;;8.69;74.52
74075;BME280;62428;51.412;5.432;2023-05-19T04:43:37;102411.25;;;8.66;74.94
74075;BME280;62428;51.412;5.432;2023-05-19T04:46:06;102418.25;;;8.67;74.89
74075;BME280;62428;51.412;5.432;2023-05-19T04:48:31;102409.63;;;8.65;75.15
74075;BME280;62428;51.412;5.432;2023-05-19T04:50:58;102417.09;;;8.63;75.30
74075;BME280;62428;51.412;5.432;2023-05-19T04:53:28;102410.13;;;8.62;75.19
74075;BME280;62428;51.412;5.432;2023-05-19T04:55:54;102404.53;;;8.63;75.45
74075;BME280;62428;51.412;5.432;2023-05-19T04:58:21;102409.16;;;8.68;75.62
74075;BME280;62428;51.412;5.432;2023-05-19T05:00:46;102410.78;;;8.69;75.58
74075;BME280;62428;51.412;5.432;2023-05-19T05:03:12;102407.63;;;8.72;75.52
74075;BME280;62428;51.412;5.432;2023-05-19T05:05:39;102405.25;;;8.76;75.27
74075;BME280;62428;51.412;5.432;2023-05-19T05:08:04;102405.59;;;8.79;75.12
74075;BME280;62428;51.412;5.432;2023-05-19T05:10:30;102405.38;;;8.81;75.00
74075;BME280;62428;51.412;5.432;2023-05-19T05:12:56;102404.56;;;8.80;75.39
74075;BME280;62428;51.412;5.432;2023-05-19T05:15:22;102411.84;;;8.85;75.50
74075;BME280;62428;51.412;5.432;2023-05-19T05:17:48;102413.03;;;8.89;74.99
74075;BME280;62428;51.412;5.432;2023-05-19T05:20:14;102410.06;;;8.91;75.12
74075;BME280;62428;51.412;5.432;2023-05-19T05:22:40;102411.25;;;8.95;74.99
74075;BME280;62428;51.412;5.432;2023-05-19T05:25:06;102414.00;;;9.00;74.73
74075;BME280;62428;51.412;5.432;2023-05-19T05:27:32;102418.88;;;9.03;74.90
74075;BME280;62428;51.412;5.432;2023-05-19T05:29:57;102414.06;;;9.05;75.18
74075;BME280;62428;51.412;5.432;2023-05-19T05:32:23;102418.47;;;9.11;74.92
74075;BME280;62428;51.412;5.432;2023-05-19T05:34:48;102424.50;;;9.18;74.49
74075;BME280;62428;51.412;5.432;2023-05-19T05:37:14;102421.63;;;9.25;74.79
74075;BME280;62428;51.412;5.432;2023-05-19T05:39:40;102424.41;;;9.30;74.02
74075;BME280;62428;51.412;5.432;2023-05-19T05:42:06;102426.69;;;9.38;74.18
74075;BME280;62428;51.412;5.432;2023-05-19T05:44:33;102422.78;;;9.46;73.87
74075;BME280;62428;51.412;5.432;2023-05-19T05:47:00;102427.72;;;9.54;74.12
74075;BME280;62428;51.412;5.432;2023-05-19T05:49:25;102422.19;;;9.61;73.70
74075;BME280;62428;51.412;5.432;2023-05-19T05:51:51;102425.28;;;9.70;73.17
74075;BME280;62428;51.412;5.432;2023-05-19T05:54:19;102425.69;;;9.78;73.29
74075;BME280;62428;51.412;5.432;2023-05-19T05:56:45;102421.50;;;9.88;72.26
74075;BME280;62428;51.412;5.432;2023-05-19T05:59:11;102413.25;;;9.94;72.77
74075;BME280;62428;51.412;5.432;2023-05-19T06:01:37;102417.41;;;10.02;72.06
74075;BME280;62428;51.412;5.432;2023-05-19T06:04:02;102422.31;;;10.10;72.14
74075;BME280;62428;51.412;5.432;2023-05-19T06:06:27;102421.63;;;10.20;72.02
74075;BME280;62428;51.412;5.432;2023-05-19T06:08:53;102434.38;;;10.30;71.51
74075;BME280;62428;51.412;5.432;2023-05-19T06:11:18;102428.34;;;10.39;71.00
74075;BME280;62428;51.412;5.432;2023-05-19T06:13:43;102435.97;;;10.48;70.83
74075;BME280;62428;51.412;5.432;2023-05-19T06:16:09;102440.63;;;10.57;70.08
74075;BME280;62428;51.412;5.432;2023-05-19T06:18:34;102437.78;;;10.69;70.12
74075;BME280;62428;51.412;5.432;2023-05-19T06:20:59;102435.25;;;10.85;70.49
74075;BME280;62428;51.412;5.432;2023-05-19T06:23:25;102442.72;;;11.05;70.36
74075;BME280;62428;51.412;5.432;2023-05-19T06:25:53;102435.84;;;11.24;68.69
74075;BME280;62428;51.412;5.432;2023-05-19T06:28:18;102440.03;;;11.42;67.95
74075;BME280;62428;51.412;5.432;2023-05-19T06:30:43;102439.91;;;11.59;66.59
74075;BME280;62428;51.412;5.432;2023-05-19T06:33:09;102438.13;;;11.80;67.17
74075;BME280;62428;51.412;5.432;2023-05-19T06:35:34;102445.00;;;11.98;66.13
74075;BME280;62428;51.412;5.432;2023-05-19T06:38:00;102443.41;;;12.07;65.33
74075;BME280;62428;51.412;5.432;2023-05-19T06:40:25;102445.88;;;12.19;65.11
74075;BME280;62428;51.412;5.432;2023-05-19T06:42:50;102443.53;;;12.33;65.76
74075;BME280;62428;51.412;5.432;2023-05-19T06:45:16;102441.13;;;12.52;64.17
74075;BME280;62428;51.412;5.432;2023-05-19T06:47:45;102439.06;;;12.75;63.70
74075;BME280;62428;51.412;5.432;2023-05-19T06:50:11;102435.59;;;13.00;63.20
74075;BME280;62428;51.412;5.432;2023-05-19T06:52:36;102425.59;;;13.16;62.23
74075;BME280;62428;51.412;5.432;2023-05-19T06:55:02;102425.63;;;13.31;61.78
74075;BME280;62428;51.412;5.432;2023-05-19T06:57:27;102431.00;;;13.46;61.88
74075;BME280;62428;51.412;5.432;2023-05-19T06:59:52;102436.66;;;13.60;60.19
74075;BME280;62428;51.412;5.432;2023-05-19T07:02:18;102433.09;;;13.75;61.85
74075;BME280;62428;51.412;5.432;2023-05-19T07:04:43;102431.44;;;13.95;59.41
74075;BME280;62428;51.412;5.432;2023-05-19T07:07:08;102432.47;;;14.04;59.45
74075;BME280;62428;51.412;5.432;2023-05-19T07:09:34;102431.88;;;14.12;59.48
74075;BME280;62428;51.412;5.432;2023-05-19T07:11:59;102430.47;;;14.25;58.60
74075;BME280;62428;51.412;5.432;2023-05-19T07:14:25;102429.31;;;14.41;58.82
74075;BME280;62428;51.412;5.432;2023-05-19T07:16:51;102436.81;;;14.60;58.61
74075;BME280;62428;51.412;5.432;2023-05-19T07:19:16;102438.91;;;14.73;58.00
74075;BME280;62428;51.412;5.432;2023-05-19T07:21:46;102436.94;;;14.84;59.41
74075;BME280;62428;51.412;5.432;2023-05-19T07:24:12;102438.47;;;14.95;57.63
74075;BME280;62428;51.412;5.432;2023-05-19T07:26:38;102445.66;;;15.10;57.17
74075;BME280;62428;51.412;5.432;2023-05-19T07:29:03;102439.06;;;15.22;56.59
74075;BME280;62428;51.412;5.432;2023-05-19T07:31:29;102433.34;;;15.28;54.69
74075;BME280;62428;51.412;5.432;2023-05-19T07:33:54;102431.38;;;15.34;56.50
74075;BME280;62428;51.412;5.432;2023-05-19T07:36:19;102432.69;;;15.36;55.37
74075;BME280;62428;51.412;5.432;2023-05-19T07:38:45;102434.88;;;15.34;55.69
74075;BME280;62428;51.412;5.432;2023-05-19T07:41:11;102433.28;;;15.33;55.14
74075;BME280;62428;51.412;5.432;2023-05-19T07:43:37;102431.66;;;15.32;54.61
74075;BME280;62428;51.412;5.432;2023-05-19T07:46:02;102438.22;;;15.26;56.46
74075;BME280;62428;51.412;5.432;2023-05-19T07:48:27;102427.91;;;15.28;56.09
74075;BME280;62428;51.412;5.432;2023-05-19T07:50:53;102430.03;;;15.31;55.39
74075;BME280;62428;51.412;5.432;2023-05-19T07:53:19;102429.81;;;15.28;54.65
74075;BME280;62428;51.412;5.432;2023-05-19T07:55:45;102429.88;;;15.23;56.06
74075;BME280;62428;51.412;5.432;2023-05-19T07:58:10;102427.41;;;15.26;55.55
74075;BME280;62428;51.412;5.432;2023-05-19T08:00:36;102427.81;;;15.38;54.95
74075;BME280;62428;51.412;5.432;2023-05-19T08:03:01;102425.00;;;15.49;55.46
74075;BME280;62428;51.412;5.432;2023-05-19T08:05:27;102429.28;;;15.55;56.52
74075;BME280;62428;51.412;5.432;2023-05-19T08:07:54;102425.78;;;15.79;54.36
74075;BME280;62428;51.412;5.432;2023-05-19T08:10:19;102427.31;;;15.90;52.39
74075;BME280;62428;51.412;5.432;2023-05-19T08:12:45;102425.34;;;15.95;53.86
74075;BME280;62428;51.412;5.432;2023-05-19T08:15:11;102427.47;;;15.99;52.95
74075;BME280;62428;51.412;5.432;2023-05-19T08:17:36;102418.47;;;16.03;53.81
74075;BME280;62428;51.412;5.432;2023-05-19T08:20:03;102426.38;;;16.00;51.40
74075;BME280;62428;51.412;5.432;2023-05-19T08:22:30;102414.06;;;15.88;52.62
74075;BME280;62428;51.412;5.432;2023-05-19T08:24:55;102417.09;;;15.82;51.60
74075;BME280;62428;51.412;5.432;2023-05-19T08:27:21;102414.63;;;15.85;52.76
74075;BME280;62428;51.412;5.432;2023-05-19T08:29:46;102409.16;;;16.09;56.55
74075;BME280;62428;51.412;5.432;2023-05-19T08:32:12;102407.16;;;16.39;54.07
74075;BME280;62428;51.412;5.432;2023-05-19T08:34:37;102408.97;;;16.63;53.97
74075;BME280;62428;51.412;5.432;2023-05-19T08:37:02;102404.78;;;16.70;48.25
74075;BME280;62428;51.412;5.432;2023-05-19T08:39:28;102397.66;;;16.75;50.28
74075;BME280;62428;51.412;5.432;2023-05-19T08:41:53;102400.03;;;16.81;50.29
74075;BME280;62428;51.412;5.432;2023-05-19T08:44:19;102393.44;;;16.87;52.65
74075;BME280;62428;51.412;5.432;2023-05-19T08:46:46;102387.72;;;17.03;53.95
74075;BME280;62428;51.412;5.432;2023-05-19T08:49:19;102381.53;;;17.16;50.87
74075;BME280;62428;51.412;5.432;2023-05-19T08:51:59;102375.81;;;17.18;50.17
74075;BME280;62428;51.412;5.432;2023-05-19T08:54:31;102382.25;;;17.22;50.20
74075;BME280;62428;51.412;5.432;2023-05-19T08:56:59;102374.31;;;17.39;49.87
74075;BME280;62428;51.412;5.432;2023-05-19T08:59:25;102377.44;;;17.46;45.80
74075;BME280;62428;51.412;5.432;2023-05-19T09:01:52;102374.72;;;17.60;51.55
74075;BME280;62428;51.412;5.432;2023-05-19T09:04:19;102369.81;;;17.76;49.41
74075;BME280;62428;51.412;5.432;2023-05-19T09:06:44;102365.28;;;17.85;46.93
74075;BME280;62428;51.412;5.432;2023-05-19T09:09:10;102361.25;;;17.97;48.21
74075;BME280;62428;51.412;5.432;2023-05-19T09:11:36;102363.31;;;18.14;48.29
74075;BME280;62428;51.412;5.432;2023-05-19T09:14:03;102356.53;;;18.25;44.86
74075;BME280;62428;51.412;5.432;2023-05-19T09:16:28;102366.00;;;18.28;43.49
74075;BME280;62428;51.412;5.432;2023-05-19T09:18:55;102363.00;;;18.29;40.74
74075;BME280;62428;51.412;5.432;2023-05-19T09:21:31;102353.63;;;18.21;40.90
74075;BME280;62428;51.412;5.432;2023-05-19T09:24:06;102349.59;;;18.19;41.57
74075;BME280;62428;51.412;5.432;2023-05-19T09:26:36;102349.59;;;18.19;40.44
74075;BME280;62428;51.412;5.432;2023-05-19T09:29:10;102347.50;;;18.16;41.39
74075;BME280;62428;51.412;5.432;2023-05-19T09:31:35;102342.69;;;18.13;41.85
74075;BME280;62428;51.412;5.432;2023-05-19T09:34:00;102339.69;;;18.00;41.28
74075;BME280;62428;51.412;5.432;2023-05-19T09:36:28;102344.19;;;18.05;43.74
74075;BME280;62428;51.412;5.432;2023-05-19T09:38:53;102338.44;;;18.06;42.24
74075;BME280;62428;51.412;5.432;2023-05-19T09:41:19;102345.03;;;17.92;41.68
74075;BME280;62428;51.412;5.432;2023-05-19T09:43:53;102339.41;;;17.60;42.69
74075;BME280;62428;51.412;5.432;2023-05-19T09:46:23;102341.81;;;17.48;41.77
74075;BME280;62428;51.412;5.432;2023-05-19T09:48:56;102336.59;;;17.65;41.26
74075;BME280;62428;51.412;5.432;2023-05-19T09:51:22;102335.88;;;17.74;42.86
74075;BME280;62428;51.412;5.432;2023-05-19T09:53:48;102344.84;;;17.88;42.86
74075;BME280;62428;51.412;5.432;2023-05-19T09:56:14;102349.69;;;17.91;41.72
74075;BME280;62428;51.412;5.432;2023-05-19T09:58:41;102345.53;;;17.94;40.24
74075;BME280;62428;51.412;5.432;2023-05-19T10:01:07;102346.72;;;18.01;40.01
74075;BME280;62428;51.412;5.432;2023-05-19T10:03:33;102347.84;;;18.00;38.87
74075;BME280;62428;51.412;5.432;2023-05-19T10:06:00;102347.44;;;17.93;39.28
74075;BME280;62428;51.412;5.432;2023-05-19T10:08:27;102341.09;;;17.98;41.33
74075;BME280;62428;51.412;5.432;2023-05-19T10:10:54;102344.78;;;18.16;40.34
74075;BME280;62428;51.412;5.432;2023-05-19T10:13:21;102337.50;;;18.25;40.05
74075;BME280;62428;51.412;5.432;2023-05-19T10:15:48;102337.50;;;18.25;38.39
74075;BME280;62428;51.412;5.432;2023-05-19T10:18:14;102340.53;;;18.23;39.47
74075;BME280;62428;51.412;5.432;2023-05-19T10:20:42;102338.63;;;18.24;38.52
74075;BME280;62428;51.412;5.432;2023-05-19T10:23:08;102334.75;;;18.25;38.81
74075;BME280;62428;51.412;5.432;2023-05-19T10:25:33;102332.13;;;18.34;40.30
74075;BME280;62428;51.412;5.432;2023-05-19T10:28:03;102322.47;;;18.50;40.37
74075;BME280;62428;51.412;5.432;2023-05-19T10:30:38;102329.47;;;18.65;39.95
74075;BME280;62428;51.412;5.432;2023-05-19T10:33:07;102325.81;;;18.70;41.09
74075;BME280;62428;51.412;5.432;2023-05-19T10:38:47;102320.56;;;18.73;40.34
74075;BME280;62428;51.412;5.432;2023-05-19T10:44:30;102324.16;;;18.82;40.57
74075;BME280;62428;51.412;5.432;2023-05-19T10:46:59;102305.78;;;18.88;39.05
74075;BME280;62428;51.412;5.432;2023-05-19T10:49:24;102312.00;;;18.89;37.39
74075;BME280;62428;51.412;5.432;2023-05-19T10:51:54;102309.59;;;18.87;38.81
74075;BME280;62428;51.412;5.432;2023-05-19T10:54:40;102304.81;;;18.93;38.59
74075;BME280;62428;51.412;5.432;2023-05-19T10:57:07;102312.38;;;18.96;37.78
74075;BME280;62428;51.412;5.432;2023-05-19T10:59:34;102316.25;;;19.04;37.35
74075;BME280;62428;51.412;5.432;2023-05-19T11:02:02;102309.53;;;19.01;36.91
74075;BME280;62428;51.412;5.432;2023-05-19T11:07:08;102310.41;;;18.88;37.78
74075;BME280;62428;51.412;5.432;2023-05-19T11:09:39;102313.75;;;18.85;37.20
74075;BME280;62428;51.412;5.432;2023-05-19T11:12:05;102320.66;;;18.91;36.80
74075;BME280;62428;51.412;5.432;2023-05-19T11:14:31;102311.28;;;18.97;36.87
74075;BME280;62428;51.412;5.432;2023-05-19T11:16:58;102300.75;;;19.13;37.76
74075;BME280;62428;51.412;5.432;2023-05-19T11:19:28;102302.25;;;19.28;36.67
74075;BME280;62428;51.412;5.432;2023-05-19T11:21:55;102310.13;;;19.38;36.93
74075;BME280;62428;51.412;5.432;2023-05-19T11:24:38;102306.16;;;19.53;39.73
74075;BME280;62428;51.412;5.432;2023-05-19T11:27:20;102302.50;;;19.57;38.12
74075;BME280;62428;51.412;5.432;2023-05-19T11:29:46;102308.53;;;19.46;36.01
74075;BME280;62428;51.412;5.432;2023-05-19T11:32:12;102305.16;;;19.40;36.80
74075;BME280;62428;51.412;5.432;2023-05-19T11:34:38;102307.56;;;19.42;36.21
74075;BME280;62428;51.412;5.432;2023-05-19T11:37:05;102303.09;;;19.37;35.69
74075;BME280;62428;51.412;5.432;2023-05-19T11:39:31;102302.59;;;19.44;36.72
74075;BME280;62428;51.412;5.432;2023-05-19T11:41:57;102298.63;;;19.58;39.80
74075;BME280;62428;51.412;5.432;2023-05-19T11:44:22;102296.09;;;19.71;35.67
74075;BME280;62428;51.412;5.432;2023-05-19T11:46:48;102294.19;;;19.71;35.61
74075;BME280;62428;51.412;5.432;2023-05-19T11:49:14;102294.03;;;19.68;35.53
74075;BME280;62428;51.412;5.432;2023-05-19T11:51:42;102289.38;;;19.68;35.29
74075;BME280;62428;51.412;5.432;2023-05-19T11:54:09;102287.16;;;19.79;36.15
74075;BME280;62428;51.412;5.432;2023-05-19T11:56:42;102281.88;;;19.74;35.84
74075;BME280;62428;51.412;5.432;2023-05-19T11:59:08;102277.66;;;19.68;35.42
74075;BME280;62428;51.412;5.432;2023-05-19T12:01:34;102272.38;;;19.63;35.84
74075;BME280;62428;51.412;5.432;2023-05-19T12:04:00;102276.69;;;19.72;35.45
74075;BME280;62428;51.412;5.432;2023-05-19T12:06:26;102282.34;;;19.76;36.69
74075;BME280;62428;51.412;5.432;2023-05-19T12:08:55;102265.50;;;19.74;35.08
74075;BME280;62428;51.412;5.432;2023-05-19T12:11:22;102262.94;;;19.77;36.98
74075;BME280;62428;51.412;5.432;2023-05-19T12:13:48;102264.06;;;19.76;35.75
74075;BME280;62428;51.412;5.432;2023-05-19T12:16:15;102258.28;;;19.78;36.42
74075;BME280;62428;51.412;5.432;2023-05-19T12:18:43;102261.31;;;19.68;35.57
74075;BME280;62428;51.412;5.432;2023-05-19T12:21:09;102268.66;;;19.58;36.77
74075;BME280;62428;51.412;5.432;2023-05-19T12:23:34;102265.09;;;19.49;36.40
74075;BME280;62428;51.412;5.432;2023-05-19T12:26:00;102259.00;;;19.44;37.54
74075;BME280;62428;51.412;5.432;2023-05-19T12:28:29;102258.25;;;19.61;37.67
74075;BME280;62428;51.412;5.432;2023-05-19T12:30:55;102261.81;;;19.78;35.70
74075;BME280;62428;51.412;5.432;2023-05-19T12:33:22;102257.81;;;19.76;35.74
74075;BME280;62428;51.412;5.432;2023-05-19T12:35:48;102247.16;;;19.66;36.38
74075;BME280;62428;51.412;5.432;2023-05-19T12:38:14;102244.13;;;19.67;36.19
74075;BME280;62428;51.412;5.432;2023-05-19T12:40:41;102251.38;;;19.89;40.03
74075;BME280;62428;51.412;5.432;2023-05-19T12:43:07;102240.97;;;20.00;36.74
74075;BME280;62428;51.412;5.432;2023-05-19T12:45:38;102247.03;;;20.06;36.36
74075;BME280;62428;51.412;5.432;2023-05-19T12:48:04;102247.06;;;19.97;34.80
74075;BME280;62428;51.412;5.432;2023-05-19T12:50:36;102243.22;;;19.81;35.06
74075;BME280;62428;51.412;5.432;2023-05-19T12:53:01;102240.63;;;19.67;34.00
74075;BME280;62428;51.412;5.432;2023-05-19T12:55:27;102234.34;;;19.57;33.46
74075;BME280;62428;51.412;5.432;2023-05-19T12:57:52;102224.25;;;19.40;34.85
74075;BME280;62428;51.412;5.432;2023-05-19T13:00:22;102227.56;;;19.29;35.24
74075;BME280;62428;51.412;5.432;2023-05-19T13:05:35;102229.53;;;19.37;36.00
74075;BME280;62428;51.412;5.432;2023-05-19T13:08:04;102220.22;;;19.47;35.97
74075;BME280;62428;51.412;5.432;2023-05-19T13:10:30;102225.19;;;19.45;36.02
74075;BME280;62428;51.412;5.432;2023-05-19T13:12:56;102222.81;;;19.52;35.06
74075;BME280;62428;51.412;5.432;2023-05-19T13:15:23;102216.25;;;19.70;35.38
74075;BME280;62428;51.412;5.432;2023-05-19T13:17:50;102212.09;;;19.90;34.61